Time;durP1;ratioP1;P1;durP2;ratioP2;P2;SDS_P1;SDS_P2;PMS_P1;PMS_P2;Temp;Humidity;BMP_temperature;BMP_pressure;BME280_temperature;BME280_humidity;BME280_pressure;Samples;Min_cycle;Max_cycle;Signal;HPM_P1;HPM_P2
2022/12/26 00:01:32;;;;;;;83.53;13.95;;;;;;;;;;5037867;28;20019;-79
2022/12/26 00:03:58;;;;;;;79.40;14.00;;;;;;;;;;5037554;28;20396;-79
2022/12/26 00:06:25;;;;;;;97.75;15.32;;;;;;;;;;5038096;28;20026;-79
2022/12/26 00:08:52;;;;;;;92.18;14.63;;;;;;;;;;5038065;28;20461;-79
2022/12/26 00:11:18;;;;;;;84.38;15.18;;;;;;;;;;5037581;28;20029;-78
2022/12/26 00:13:44;;;;;;;78.78;13.90;;;;;;;;;;5037504;28;20022;-79
2022/12/26 00:16:11;;;;;;;73.00;13.63;;;;;;;;;;5037435;28;20033;-78
2022/12/26 00:18:38;;;;;;;79.47;14.23;;;;;;;;;;5037801;28;20037;-79
2022/12/26 00:21:04;;;;;;;84.32;14.05;;;;;;;;;;5037632;28;20017;-78
2022/12/26 00:23:31;;;;;;;74.32;13.75;;;;;;;;;;5036807;28;20031;-78
2022/12/26 00:26:01;;;;;;;79.95;14.13;;;;;;;;;;5037658;28;20040;-78
2022/12/26 00:28:27;;;;;;;80.28;15.35;;;;;;;;;;5038526;28;20108;-79
2022/12/26 00:30:53;;;;;;;83.53;14.05;;;;;;;;;;5038612;28;20076;-79
2022/12/26 00:33:19;;;;;;;74.32;12.50;;;;;;;;;;5038178;28;20037;-78
2022/12/26 00:35:45;;;;;;;92.93;14.52;;;;;;;;;;5019742;28;20021;-79
2022/12/26 00:38:11;;;;;;;75.13;14.20;;;;;;;;;;5037042;28;20129;-78
2022/12/26 00:40:42;;;;;;;71.72;13.60;;;;;;;;;;5036961;28;20032;-78
2022/12/26 00:43:08;;;;;;;77.85;12.43;;;;;;;;;;5036900;28;20028;-79
2022/12/26 00:45:34;;;;;;;91.65;13.85;;;;;;;;;;5035986;28;20030;-79
2022/12/26 00:50:50;;;;;;;124.20;14.15;;;;;;;;;;5035640;28;20030;-79
2022/12/26 00:53:17;;;;;;;92.35;14.00;;;;;;;;;;5035470;28;20116;-79
2022/12/26 00:55:43;;;;;;;214.30;20.05;;;;;;;;;;5036051;28;20017;-79
2022/12/26 00:58:09;;;;;;;99.07;14.65;;;;;;;;;;5035707;28;20052;-79
2022/12/26 01:00:35;;;;;;;90.80;13.45;;;;;;;;;;5035949;28;20071;-78
2022/12/26 01:03:23;;;;;;;92.80;13.90;;;;;;;;;;5035424;28;20116;-78
2022/12/26 01:05:50;;;;;;;64.38;12.18;;;;;;;;;;5035535;28;20104;-78
2022/12/26 01:08:16;;;;;;;81.47;13.90;;;;;;;;;;5035197;28;20032;-78
2022/12/26 01:10:44;;;;;;;75.70;13.15;;;;;;;;;;5035422;28;20022;-78
2022/12/26 01:13:10;;;;;;;63.70;13.02;;;;;;;;;;5034886;28;20387;-79
2022/12/26 01:15:36;;;;;;;60.70;13.80;;;;;;;;;;5035191;28;20028;-78
2022/12/26 01:18:02;;;;;;;65.95;13.25;;;;;;;;;;5035373;28;20040;-79
2022/12/26 01:20:28;;;;;;;61.08;14.90;;;;;;;;;;5018211;28;20033;-78
2022/12/26 01:22:55;;;;;;;56.95;13.45;;;;;;;;;;5034897;28;20029;-78
2022/12/26 01:25:21;;;;;;;46.88;11.38;;;;;;;;;;5035098;28;20108;-78
2022/12/26 01:27:51;;;;;;;45.92;12.40;;;;;;;;;;5035484;28;20021;-78
2022/12/26 01:30:18;;;;;;;48.78;12.38;;;;;;;;;;5035026;28;20369;-78
2022/12/26 01:32:44;;;;;;;41.92;10.77;;;;;;;;;;5035604;28;20037;-79
2022/12/26 01:35:09;;;;;;;45.88;12.38;;;;;;;;;;5034998;28;20029;-78
2022/12/26 01:37:35;;;;;;;36.75;10.85;;;;;;;;;;5034694;28;20029;-78
2022/12/26 01:40:02;;;;;;;46.08;11.65;;;;;;;;;;5034647;28;20029;-78
2022/12/26 01:42:35;;;;;;;38.22;11.40;;;;;;;;;;5034425;28;20849;-78
2022/12/26 01:45:04;;;;;;;35.92;11.43;;;;;;;;;;5016912;28;20048;-77
2022/12/26 01:47:38;;;;;;;34.45;10.65;;;;;;;;;;5034191;28;20056;-78
2022/12/26 01:50:04;;;;;;;30.00;10.50;;;;;;;;;;5034443;28;20037;-77
2022/12/26 01:52:35;;;;;;;35.38;10.75;;;;;;;;;;5034228;28;20032;-78
2022/12/26 01:55:00;;;;;;;;;;;;;;;;;;5035091;28;20025;-78
2022/12/26 01:57:30;;;;;;;33.10;11.30;;;;;;;;;;5034066;28;19917;-78
2022/12/26 01:59:57;;;;;;;41.00;12.60;;;;;;;;;;5034614;28;20056;-78
2022/12/26 02:02:25;;;;;;;34.45;11.85;;;;;;;;;;5034187;28;20049;-78
2022/12/26 02:07:45;;;;;;;41.92;13.20;;;;;;;;;;5034295;28;20067;-78
2022/12/26 02:10:13;;;;;;;44.75;13.82;;;;;;;;;;5034327;28;20518;-78
2022/12/26 02:12:40;;;;;;;46.20;14.45;;;;;;;;;;5034377;28;20029;-78
2022/12/26 02:15:14;;;;;;;44.47;14.40;;;;;;;;;;5034589;28;20057;-78
2022/12/26 02:17:41;;;;;;;54.15;15.18;;;;;;;;;;5034144;28;20036;-78
2022/12/26 02:20:09;;;;;;;46.80;14.68;;;;;;;;;;5034131;28;20017;-78
2022/12/26 02:22:43;;;;;;;52.83;16.02;;;;;;;;;;5034023;28;20030;-78
2022/12/26 02:25:16;;;;;;;55.42;15.90;;;;;;;;;;5016043;28;20033;-79
2022/12/26 02:27:45;;;;;;;57.15;16.48;;;;;;;;;;5034274;28;20029;-78
2022/12/26 02:30:24;;;;;;;52.42;16.30;;;;;;;;;;5033735;28;20399;-78
2022/12/26 02:32:56;;;;;;;50.53;15.68;;;;;;;;;;5034573;28;20025;-79
2022/12/26 02:35:35;;;;;;;48.83;15.57;;;;;;;;;;5035683;28;20040;-78
2022/12/26 02:38:16;;;;;;;54.88;17.05;;;;;;;;;;5035302;28;20510;-79
2022/12/26 02:41:01;;;;;;;58.72;16.70;;;;;;;;;;5034508;28;20208;-78
2022/12/26 02:43:36;;;;;;;46.65;16.48;;;;;;;;;;5034277;28;20033;-78
2022/12/26 02:49:28;;;;;;;58.60;17.13;;;;;;;;;;5034306;28;20079;-78
2022/12/26 03:14:49;;;;;;;48.35;16.98;;;;;;;;;;5034681;28;20495;-78
2022/12/26 03:17:20;;;;;;;53.85;16.35;;;;;;;;;;5037486;28;20080;-78
2022/12/26 03:19:58;;;;;;;57.90;16.70;;;;;;;;;;5037728;28;20025;-79
2022/12/26 03:22:42;;;;;;;53.33;16.15;;;;;;;;;;5037446;28;20033;-78
2022/12/26 03:27:59;;;;;;;50.83;16.63;;;;;;;;;;5037706;28;20440;-78
2022/12/26 03:34:16;;;;;;;51.65;17.10;;;;;;;;;;5038467;28;20040;-78
2022/12/26 03:35:55;;;;;;;41.33;15.60;;;;;;;;;;5037848;28;20074;-78
2022/12/26 03:38:24;;;;;;;40.88;16.08;;;;;;;;;;5037322;28;20392;-78
2022/12/26 04:46:35;;;;;;;44.63;14.93;;;;;;;;;;5036353;28;20033;-78
2022/12/26 04:51:46;;;;;;;34.97;15.35;;;;;;;;;;5035889;28;19951;-78
2022/12/26 04:54:12;;;;;;;40.63;15.95;;;;;;;;;;5035812;28;20044;-79
2022/12/26 04:56:38;;;;;;;39.60;16.95;;;;;;;;;;5035879;28;20030;-78
2022/12/26 04:59:04;;;;;;;40.28;16.33;;;;;;;;;;5035336;28;20587;-78
2022/12/26 05:09:48;;;;;;;79.05;18.60;;;;;;;;;;5036168;28;20092;-79
2022/12/26 05:12:14;;;;;;;40.83;15.85;;;;;;;;;;5035462;28;20056;-79
2022/12/26 05:14:40;;;;;;;67.53;17.90;;;;;;;;;;5035360;28;20022;-79
2022/12/26 05:30:56;;;;;;;34.70;15.07;;;;;;;;;;5036749;28;20055;-79
2022/12/26 05:36:07;;;;;;;41.60;15.73;;;;;;;;;;5036993;28;20037;-79
2022/12/26 05:38:33;;;;;;;39.03;16.08;;;;;;;;;;5034896;28;20030;-78
2022/12/26 05:40:59;;;;;;;34.15;14.88;;;;;;;;;;5034870;28;20563;-78
2022/12/26 05:43:25;;;;;;;35.22;15.85;;;;;;;;;;5034216;28;20112;-79
2022/12/26 05:45:51;;;;;;;34.13;14.52;;;;;;;;;;5034432;28;20370;-79
2022/12/26 05:48:17;;;;;;;34.67;15.35;;;;;;;;;;5034068;28;20022;-79
2022/12/26 05:50:43;;;;;;;33.83;14.63;;;;;;;;;;5034203;28;20021;-79
2022/12/26 05:53:09;;;;;;;34.88;14.77;;;;;;;;;;5034071;28;20064;-79
2022/12/26 05:55:35;;;;;;;36.15;15.85;;;;;;;;;;5034202;28;20480;-78
2022/12/26 05:58:01;;;;;;;33.10;15.10;;;;;;;;;;5034444;28;20072;-79
2022/12/26 06:00:28;;;;;;;33.75;15.05;;;;;;;;;;5034152;28;20025;-78
2022/12/26 06:02:54;;;;;;;35.33;15.60;;;;;;;;;;5034051;28;20056;-78
2022/12/26 06:05:21;;;;;;;34.38;14.50;;;;;;;;;;5034326;28;20034;-78
2022/12/26 06:07:47;;;;;;;33.90;15.68;;;;;;;;;;5034145;28;20053;-79
2022/12/26 06:10:13;;;;;;;36.63;15.38;;;;;;;;;;5034500;28;20068;-78
2022/12/26 06:13:07;;;;;;;30.90;14.07;;;;;;;;;;5033852;28;20080;-78
2022/12/26 06:15:33;;;;;;;28.55;13.68;;;;;;;;;;5034247;28;20057;-79
2022/12/26 06:17:59;;;;;;;27.98;13.18;;;;;;;;;;5034118;28;20037;-78
2022/12/26 06:20:25;;;;;;;30.25;13.35;;;;;;;;;;5017125;28;20026;-79
2022/12/26 06:22:51;;;;;;;25.48;13.55;;;;;;;;;;5027333;28;20500;-79
2022/12/26 06:25:17;;;;;;;26.23;13.02;;;;;;;;;;5033640;28;20025;-78
2022/12/26 06:27:43;;;;;;;28.92;13.00;;;;;;;;;;5031431;28;20032;-79
2022/12/26 06:30:09;;;;;;;24.60;12.75;;;;;;;;;;5037997;28;20100;-79
2022/12/26 06:32:35;;;;;;;27.40;12.80;;;;;;;;;;5036058;28;20033;-79
2022/12/26 06:35:01;;;;;;;24.92;12.55;;;;;;;;;;5037680;28;20033;-79
2022/12/26 06:37:27;;;;;;;25.58;12.38;;;;;;;;;;5038465;28;20030;-79
2022/12/26 06:39:53;;;;;;;24.02;12.20;;;;;;;;;;5028899;28;20030;-80
2022/12/26 06:42:19;;;;;;;23.60;12.25;;;;;;;;;;5029628;28;20083;-79
2022/12/26 06:44:45;;;;;;;24.80;12.43;;;;;;;;;;5036296;28;20040;-79
2022/12/26 06:47:11;;;;;;;24.42;12.05;;;;;;;;;;5035554;28;20025;-79
2022/12/26 06:49:41;;;;;;;26.40;12.27;;;;;;;;;;5035709;28;20018;-79
2022/12/26 06:52:07;;;;;;;32.33;12.55;;;;;;;;;;5039466;28;20029;-79
2022/12/26 06:54:34;;;;;;;25.05;12.88;;;;;;;;;;5040052;28;20029;-79
2022/12/26 06:57:00;;;;;;;27.30;12.32;;;;;;;;;;5039524;28;20116;-78
2022/12/26 06:59:29;;;;;;;24.00;11.77;;;;;;;;;;5039498;28;20040;-78
2022/12/26 07:01:55;;;;;;;23.90;12.10;;;;;;;;;;5039380;28;20079;-78
2022/12/26 07:04:20;;;;;;;22.80;11.27;;;;;;;;;;5039369;28;20025;-79
2022/12/26 07:06:46;;;;;;;23.30;11.98;;;;;;;;;;5039269;28;20104;-79
2022/12/26 07:09:13;;;;;;;26.38;10.57;;;;;;;;;;5020832;28;20384;-78
2022/12/26 07:11:40;;;;;;;22.95;10.13;;;;;;;;;;5038811;28;20025;-79
2022/12/26 07:14:07;;;;;;;21.77;9.63;;;;;;;;;;5038248;28;20048;-78
2022/12/26 07:16:36;;;;;;;16.02;9.18;;;;;;;;;;5038363;28;20018;-78
2022/12/26 07:19:03;;;;;;;20.67;9.23;;;;;;;;;;5037884;28;20353;-78
2022/12/26 07:21:29;;;;;;;19.95;9.07;;;;;;;;;;5037636;28;20026;-78
2022/12/26 07:23:55;;;;;;;18.27;8.38;;;;;;;;;;5037928;28;20028;-78
2022/12/26 07:26:21;;;;;;;16.63;8.25;;;;;;;;;;5037871;28;20057;-78
2022/12/26 07:28:47;;;;;;;20.10;8.50;;;;;;;;;;5038857;28;20076;-78
2022/12/26 07:31:17;;;;;;;19.67;8.57;;;;;;;;;;5038156;28;20026;-78
2022/12/26 07:33:46;;;;;;;14.82;7.75;;;;;;;;;;5018830;28;20338;-79
2022/12/26 07:36:12;;;;;;;17.83;8.10;;;;;;;;;;5018385;28;20076;-78
2022/12/26 07:38:38;;;;;;;19.05;9.23;;;;;;;;;;5018133;28;20030;-78
2022/12/26 07:41:56;;;;;;;22.48;8.70;;;;;;;;;;5017466;28;20028;-78
2022/12/26 07:43:50;;;;;;;18.77;9.77;;;;;;;;;;5019298;28;20046;-79
2022/12/26 07:46:16;;;;;;;21.13;8.13;;;;;;;;;;5037455;28;20034;-78
2022/12/26 07:48:42;;;;;;;22.63;8.45;;;;;;;;;;5034689;28;20046;-78
2022/12/26 07:51:08;;;;;;;16.33;7.72;;;;;;;;;;5017990;28;20465;-78
2022/12/26 07:53:48;;;;;;;16.15;7.28;;;;;;;;;;5006416;28;20025;-78
2022/12/26 07:56:14;;;;;;;;;;;;;;;;;;5038716;28;20029;-78
2022/12/26 07:58:40;;;;;;;17.17;7.40;;;;;;;;;;5031998;28;19940;-78
2022/12/26 08:01:06;;;;;;;17.63;7.78;;;;;;;;;;5017459;28;20030;-78
2022/12/26 08:03:33;;;;;;;17.92;7.25;;;;;;;;;;5020103;28;20032;-78
2022/12/26 08:05:59;;;;;;;21.63;8.32;;;;;;;;;;5020380;28;20036;-79
2022/12/26 08:08:25;;;;;;;20.55;7.63;;;;;;;;;;5037629;28;20024;-79
2022/12/26 08:11:01;;;;;;;20.83;7.63;;;;;;;;;;5037436;28;20108;-79
2022/12/26 08:13:27;;;;;;;16.55;7.20;;;;;;;;;;5041537;28;20031;-79
2022/12/26 08:15:53;;;;;;;21.38;7.93;;;;;;;;;;5023015;28;20052;-78
2022/12/26 08:18:19;;;;;;;13.35;6.63;;;;;;;;;;5027003;28;20021;-79
2022/12/26 08:20:45;;;;;;;16.50;7.03;;;;;;;;;;5042771;28;20365;-79
2022/12/26 08:23:11;;;;;;;20.15;6.78;;;;;;;;;;5042248;28;20040;-78
2022/12/26 08:25:37;;;;;;;18.13;6.55;;;;;;;;;;5041639;28;20036;-79
2022/12/26 08:28:03;;;;;;;14.75;6.43;;;;;;;;;;5022821;28;20031;-78
2022/12/26 08:30:29;;;;;;;15.10;6.53;;;;;;;;;;5040682;28;20030;-78
2022/12/26 08:32:55;;;;;;;15.50;4.43;;;;;;;;;;5039873;28;20099;-78
2022/12/26 08:35:21;;;;;;;16.58;4.22;;;;;;;;;;5039774;28;20048;-79
2022/12/26 08:37:47;;;;;;;13.25;3.90;;;;;;;;;;5034495;28;20026;-78
2022/12/26 08:40:13;;;;;;;8.98;3.08;;;;;;;;;;5034655;28;20338;-79
2022/12/26 08:42:39;;;;;;;13.60;3.40;;;;;;;;;;5036197;28;20456;-79
2022/12/26 08:45:05;;;;;;;17.88;2.70;;;;;;;;;;5022909;28;20117;-78
2022/12/26 08:47:31;;;;;;;9.45;2.90;;;;;;;;;;5018946;28;20026;-78
2022/12/26 08:49:59;;;;;;;10.02;2.20;;;;;;;;;;5007700;28;20052;-78
2022/12/26 08:52:25;;;;;;;16.45;3.05;;;;;;;;;;5001495;28;20030;-78
2022/12/26 08:54:51;;;;;;;21.02;2.42;;;;;;;;;;5019238;28;20034;-78
2022/12/26 08:57:17;;;;;;;20.45;2.63;;;;;;;;;;5028677;28;20494;-79
2022/12/26 08:59:43;;;;;;;17.45;2.55;;;;;;;;;;5034206;28;20464;-78
2022/12/26 09:02:11;;;;;;;11.65;2.13;;;;;;;;;;5018805;28;20049;-79
2022/12/26 09:04:37;;;;;;;15.73;3.08;;;;;;;;;;5032550;28;20599;-79
2022/12/26 09:07:03;;;;;;;17.17;2.15;;;;;;;;;;5027123;28;20072;-79
2022/12/26 09:09:30;;;;;;;13.38;2.28;;;;;;;;;;5041630;28;20104;-79
2022/12/26 09:11:55;;;;;;;15.77;2.00;;;;;;;;;;5037398;28;20025;-79
2022/12/26 09:14:21;;;;;;;14.35;2.05;;;;;;;;;;5038241;28;20060;-78
2022/12/26 09:16:47;;;;;;;18.80;2.70;;;;;;;;;;5039200;28;20122;-79
2022/12/26 09:19:18;;;;;;;13.75;1.92;;;;;;;;;;5041878;28;20025;-78
2022/12/26 09:21:44;;;;;;;18.30;1.98;;;;;;;;;;5030707;28;20025;-79
2022/12/26 09:24:12;;;;;;;12.15;1.45;;;;;;;;;;5033139;28;20037;-78
2022/12/26 09:26:38;;;;;;;13.48;1.88;;;;;;;;;;5039418;28;20029;-79
2022/12/26 09:29:04;;;;;;;12.38;1.52;;;;;;;;;;5040880;28;20029;-79
2022/12/26 09:31:31;;;;;;;9.60;1.20;;;;;;;;;;5032599;28;20030;-78
2022/12/26 09:33:58;;;;;;;13.48;2.92;;;;;;;;;;5037336;28;20029;-79
2022/12/26 09:36:25;;;;;;;8.20;1.25;;;;;;;;;;5025753;28;20029;-78
2022/12/26 09:38:52;;;;;;;9.45;1.45;;;;;;;;;;5034547;28;20030;-79
2022/12/26 09:41:33;;;;;;;15.10;2.75;;;;;;;;;;5005240;28;20081;-79
2022/12/26 09:44:18;;;;;;;22.55;1.88;;;;;;;;;;5040349;28;20040;-78
2022/12/26 09:46:50;;;;;;;12.85;1.63;;;;;;;;;;5022112;28;20473;-79
2022/12/26 09:49:19;;;;;;;12.73;2.00;;;;;;;;;;5034063;28;20083;-78
2022/12/26 09:51:48;;;;;;;17.75;1.45;;;;;;;;;;5038533;28;20021;-78
2022/12/26 09:54:18;;;;;;;11.30;2.20;;;;;;;;;;5026523;28;20017;-79
2022/12/26 09:56:45;;;;;;;15.02;3.08;;;;;;;;;;5039773;28;20021;-79
2022/12/26 09:59:17;;;;;;;11.57;1.13;;;;;;;;;;5039025;28;20053;-79
2022/12/26 10:01:43;;;;;;;10.25;1.13;;;;;;;;;;5039570;28;20104;-78
2022/12/26 10:04:22;;;;;;;4.97;1.45;;;;;;;;;;5024349;28;20105;-79
2022/12/26 10:06:51;;;;;;;12.93;2.17;;;;;;;;;;5034168;28;20033;-78
2022/12/26 10:09:17;;;;;;;10.85;1.40;;;;;;;;;;5036098;28;20456;-79
2022/12/26 10:11:56;;;;;;;14.13;2.00;;;;;;;;;;5021391;28;20058;-79
2022/12/26 10:14:43;;;;;;;11.45;1.33;;;;;;;;;;5020881;28;20030;-79
2022/12/26 10:17:13;;;;;;;6.78;1.67;;;;;;;;;;5037616;28;20033;-79
2022/12/26 10:19:42;;;;;;;10.75;1.40;;;;;;;;;;5039672;28;20491;-79
2022/12/26 10:22:28;;;;;;;8.77;1.02;;;;;;;;;;5030105;28;20034;-79
2022/12/26 10:24:56;;;;;;;8.27;1.05;;;;;;;;;;5032549;28;20395;-79
2022/12/26 10:27:24;;;;;;;3.67;0.80;;;;;;;;;;5038892;28;20056;-79
2022/12/26 10:29:58;;;;;;;7.22;0.88;;;;;;;;;;5039044;28;20029;-80
2022/12/26 10:32:26;;;;;;;5.35;0.73;;;;;;;;;;5033008;28;20025;-80
2022/12/26 10:34:52;;;;;;;8.55;1.05;;;;;;;;;;5042631;28;20021;-80
2022/12/26 10:37:25;;;;;;;9.35;1.15;;;;;;;;;;5035172;28;20025;-80
2022/12/26 10:39:56;;;;;;;5.78;1.02;;;;;;;;;;5034154;28;20040;-80
2022/12/26 10:42:22;;;;;;;7.93;0.88;;;;;;;;;;5039113;28;20022;-79
2022/12/26 10:44:48;;;;;;;3.00;1.42;;;;;;;;;;5033785;28;20060;-79
2022/12/26 10:47:23;;;;;;;3.30;1.40;;;;;;;;;;5034167;28;20021;-79
2022/12/26 10:49:49;;;;;;;8.65;1.30;;;;;;;;;;5047160;28;20108;-79
2022/12/26 10:52:16;;;;;;;6.80;1.15;;;;;;;;;;5016033;28;20033;-79
2022/12/26 10:54:45;;;;;;;6.28;0.70;;;;;;;;;;5043606;28;20029;-79
2022/12/26 10:57:11;;;;;;;7.55;0.85;;;;;;;;;;5040839;28;20484;-79
2022/12/26 10:59:45;;;;;;;13.43;1.27;;;;;;;;;;5040183;28;20041;-80
2022/12/26 11:02:13;;;;;;;10.48;1.48;;;;;;;;;;5038159;28;20025;-79
2022/12/26 11:04:55;;;;;;;12.65;1.40;;;;;;;;;;5038508;28;20057;-79
2022/12/26 11:07:21;;;;;;;10.02;1.65;;;;;;;;;;5026240;28;20029;-79
2022/12/26 11:09:52;;;;;;;7.63;1.45;;;;;;;;;;5034098;28;20022;-80
2022/12/26 11:12:24;;;;;;;7.85;1.10;;;;;;;;;;5026998;28;20384;-80
2022/12/26 11:14:56;;;;;;;15.82;1.63;;;;;;;;;;5024291;28;20022;-79
2022/12/26 11:17:28;;;;;;;7.65;1.48;;;;;;;;;;5021426;28;20022;-79
2022/12/26 11:20:22;;;;;;;12.38;1.35;;;;;;;;;;5046272;28;20049;-80
2022/12/26 11:22:48;;;;;;;7.70;1.00;;;;;;;;;;5042202;28;20464;-79
2022/12/26 11:25:21;;;;;;;8.07;1.15;;;;;;;;;;5041259;28;20033;-79
2022/12/26 11:27:48;;;;;;;6.28;1.80;;;;;;;;;;5040728;28;20376;-79
2022/12/26 11:30:23;;;;;;;7.57;1.10;;;;;;;;;;5020695;28;20086;-80
2022/12/26 11:32:51;;;;;;;11.93;2.33;;;;;;;;;;5027076;28;20052;-80
2022/12/26 11:35:17;;;;;;;4.95;0.90;;;;;;;;;;5038244;28;20029;-80
2022/12/26 11:37:45;;;;;;;7.13;1.20;;;;;;;;;;5039592;28;20081;-80
2022/12/26 11:40:17;;;;;;;7.45;1.42;;;;;;;;;;5034761;28;20376;-80
2022/12/26 11:42:47;;;;;;;8.93;1.15;;;;;;;;;;5040771;28;20093;-80
2022/12/26 11:45:20;;;;;;;5.75;0.93;;;;;;;;;;5036899;28;20401;-80
2022/12/26 11:47:46;;;;;;;9.05;1.33;;;;;;;;;;5041245;28;20032;-80
2022/12/26 11:50:20;;;;;;;6.47;0.85;;;;;;;;;;5039017;28;20464;-79
2022/12/26 11:52:46;;;;;;;7.72;1.70;;;;;;;;;;5020911;28;20024;-80
2022/12/26 11:55:32;;;;;;;7.78;1.35;;;;;;;;;;5042847;28;20480;-79
2022/12/26 11:58:18;;;;;;;8.55;1.25;;;;;;;;;;5027814;28;20053;-77
2022/12/26 12:00:50;;;;;;;7.07;1.30;;;;;;;;;;5036055;28;20472;-77
2022/12/26 12:03:16;;;;;;;9.55;1.60;;;;;;;;;;5037457;28;20032;-79
2022/12/26 12:05:42;;;;;;;10.45;1.60;;;;;;;;;;5033808;28;20056;-79
2022/12/26 12:08:15;;;;;;;7.80;2.20;;;;;;;;;;5051777;28;20026;-79
2022/12/26 12:10:53;;;;;;;11.77;1.85;;;;;;;;;;5047416;28;20492;-79
2022/12/26 12:13:38;;;;;;;12.60;1.33;;;;;;;;;;5049389;28;20029;-79
2022/12/26 12:16:11;;;;;;;8.48;1.48;;;;;;;;;;5029405;28;20029;-79
2022/12/26 12:18:49;;;;;;;15.32;2.03;;;;;;;;;;5028460;28;20030;-79
2022/12/26 12:21:24;;;;;;;8.10;1.15;;;;;;;;;;5037740;28;20040;-79
2022/12/26 12:23:53;;;;;;;15.95;1.50;;;;;;;;;;5022951;28;20103;-79
2022/12/26 12:26:22;;;;;;;13.43;1.52;;;;;;;;;;5017810;28;20037;-79
2022/12/26 12:29:07;;;;;;;7.63;1.35;;;;;;;;;;5036320;28;20032;-79
2022/12/26 12:31:45;;;;;;;11.15;0.88;;;;;;;;;;5017678;28;20493;-79
2022/12/26 12:34:14;;;;;;;8.20;1.27;;;;;;;;;;5023286;28;20025;-79
2022/12/26 12:36:59;;;;;;;11.32;1.70;;;;;;;;;;5029512;28;20053;-79
2022/12/26 12:39:31;;;;;;;8.70;1.77;;;;;;;;;;5018633;28;20026;-79
2022/12/26 12:42:09;;;;;;;9.85;1.40;;;;;;;;;;5037157;28;20052;-78
2022/12/26 12:44:35;;;;;;;8.50;1.02;;;;;;;;;;5037231;28;20033;-79
2022/12/26 12:47:07;;;;;;;10.32;1.40;;;;;;;;;;5027879;28;20021;-79
2022/12/26 12:49:51;;;;;;;7.15;1.45;;;;;;;;;;5033140;28;20504;-80
2022/12/26 12:52:17;;;;;;;10.15;1.13;;;;;;;;;;5017245;28;20022;-80
2022/12/26 12:54:46;;;;;;;8.75;1.25;;;;;;;;;;5016306;28;20544;-80
2022/12/26 12:57:21;;;;;;;10.05;1.55;;;;;;;;;;5016721;28;20022;-80
2022/12/26 13:00:14;;;;;;;11.32;1.58;;;;;;;;;;5024577;28;20029;-80
2022/12/26 13:02:50;;;;;;;7.15;1.30;;;;;;;;;;5031890;28;20485;-79
2022/12/26 13:05:20;;;;;;;10.50;1.48;;;;;;;;;;5039851;28;20037;-79
2022/12/26 13:07:46;;;;;;;;;;;;;;;;;;5037156;28;20348;-79
2022/12/26 13:10:18;;;;;;;7.60;1.38;;;;;;;;;;5041485;28;19912;-79
2022/12/26 13:12:46;;;;;;;7.20;1.23;;;;;;;;;;5037589;28;20036;-79
2022/12/26 13:15:15;;;;;;;12.63;1.90;;;;;;;;;;5035848;28;20025;-79
2022/12/26 13:17:47;;;;;;;11.10;1.30;;;;;;;;;;5017801;28;20030;-79
2022/12/26 13:20:19;;;;;;;6.88;1.17;;;;;;;;;;5037334;28;20428;-79
2022/12/26 13:25:36;;;;;;;12.95;1.20;;;;;;;;;;5034540;28;20037;-79
2022/12/26 13:28:08;;;;;;;7.28;1.08;;;;;;;;;;5016570;28;20029;-79
2022/12/26 13:30:37;;;;;;;5.93;0.82;;;;;;;;;;5016247;28;20029;-79
2022/12/26 13:33:04;;;;;;;10.48;1.30;;;;;;;;;;5033449;28;20025;-79
2022/12/26 13:35:48;;;;;;;8.10;1.15;;;;;;;;;;5021466;28;20469;-79
2022/12/26 13:38:14;;;;;;;6.07;1.00;;;;;;;;;;5015835;28;20026;-79
2022/12/26 13:44:04;;;;;;;17.92;1.35;;;;;;;;;;5015682;28;20069;-79
2022/12/26 13:46:33;;;;;;;8.57;1.67;;;;;;;;;;5030172;28;20021;-79
2022/12/26 13:49:00;;;;;;;15.85;2.22;;;;;;;;;;5031040;28;20065;-79
2022/12/26 13:51:48;;;;;;;18.98;1.73;;;;;;;;;;5031343;28;20014;-79
2022/12/26 13:54:15;;;;;;;7.80;1.45;;;;;;;;;;5042178;28;20045;-79
2022/12/26 13:56:41;;;;;;;13.15;1.67;;;;;;;;;;5039607;28;20026;-79
2022/12/26 13:59:07;;;;;;;9.60;1.30;;;;;;;;;;5028375;28;20054;-79
2022/12/26 14:01:48;;;;;;;7.93;1.67;;;;;;;;;;5045422;28;20032;-79
2022/12/26 14:04:26;;;;;;;11.35;1.15;;;;;;;;;;5032974;28;20056;-80
2022/12/26 14:07:11;;;;;;;8.05;1.88;;;;;;;;;;5038429;28;20461;-80
2022/12/26 14:09:49;;;;;;;8.18;1.88;;;;;;;;;;5035740;28;20022;-80
2022/12/26 14:12:38;;;;;;;10.93;2.17;;;;;;;;;;5038136;28;20029;-79
2022/12/26 14:15:04;;;;;;;13.30;2.55;;;;;;;;;;5043412;28;20104;-79
2022/12/26 14:17:47;;;;;;;12.95;1.90;;;;;;;;;;5041672;28;20022;-79
2022/12/26 14:20:15;;;;;;;11.52;1.90;;;;;;;;;;5036259;28;20030;-79
2022/12/26 14:22:57;;;;;;;14.68;2.55;;;;;;;;;;5033882;28;20036;-79
2022/12/26 14:25:39;;;;;;;9.77;1.58;;;;;;;;;;5036216;28;20030;-79
2022/12/26 14:28:22;;;;;;;12.80;1.85;;;;;;;;;;5041989;28;20033;-79
2022/12/26 14:30:51;;;;;;;9.95;1.42;;;;;;;;;;5036303;28;20026;-79
2022/12/26 14:33:37;;;;;;;9.52;1.33;;;;;;;;;;5039422;28;20022;-79
2022/12/26 14:36:23;;;;;;;10.02;1.67;;;;;;;;;;5033844;28;20442;-79
2022/12/26 14:38:54;;;;;;;13.90;1.25;;;;;;;;;;5041501;28;20084;-79
2022/12/26 14:47:02;;;;;;;7.43;1.00;;;;;;;;;;5038978;28;20089;-79
2022/12/26 14:49:31;;;;;;;8.55;1.23;;;;;;;;;;5024139;28;20457;-79
2022/12/26 14:52:15;;;;;;;5.22;0.80;;;;;;;;;;5027090;28;20029;-79
2022/12/26 14:54:45;;;;;;;10.20;1.10;;;;;;;;;;5017998;28;20385;-79
2022/12/26 14:57:30;;;;;;;8.23;1.05;;;;;;;;;;5017125;28;20026;-79
2022/12/26 15:00:10;;;;;;;9.23;1.73;;;;;;;;;;5025369;28;20021;-79
2022/12/26 15:02:37;;;;;;;5.00;1.10;;;;;;;;;;5038411;28;20037;-79
2022/12/26 15:05:03;;;;;;;5.05;0.93;;;;;;;;;;5037621;28;20033;-79
2022/12/26 15:07:46;;;;;;;12.73;1.98;;;;;;;;;;5034433;28;20143;-78
2022/12/26 15:10:21;;;;;;;9.07;0.90;;;;;;;;;;5029464;28;20472;-78
2022/12/26 15:13:04;;;;;;;6.68;1.55;;;;;;;;;;5018021;28;20030;-77
2022/12/26 15:15:38;;;;;;;13.45;1.60;;;;;;;;;;5031782;28;20030;-77
2022/12/26 15:18:23;;;;;;;8.23;1.80;;;;;;;;;;5032071;28;20033;-77
2022/12/26 15:21:16;;;;;;;8.60;1.60;;;;;;;;;;5030085;28;20029;-77
2022/12/26 15:23:49;;;;;;;11.02;1.35;;;;;;;;;;5028659;28;20034;-77
2022/12/26 15:26:21;;;;;;;7.35;2.05;;;;;;;;;;5015478;28;20057;-77
2022/12/26 15:29:05;;;;;;;15.13;3.45;;;;;;;;;;5036870;28;20033;-78
2022/12/26 15:31:43;;;;;;;15.57;3.40;;;;;;;;;;5036208;28;20022;-78
2022/12/26 15:34:32;;;;;;;10.80;1.70;;;;;;;;;;5036570;28;20469;-77
2022/12/26 15:37:20;;;;;;;8.50;2.20;;;;;;;;;;5033706;28;21266;-77
2022/12/26 15:40:10;;;;;;;5.75;2.03;;;;;;;;;;4993661;28;20026;-77
2022/12/26 15:42:36;;;;;;;12.15;1.52;;;;;;;;;;5015674;28;20091;-77
2022/12/26 15:45:28;;;;;;;10.00;1.70;;;;;;;;;;5031997;28;20025;-77
2022/12/26 15:48:09;;;;;;;9.95;2.75;;;;;;;;;;4988351;28;20485;-77
2022/12/26 15:50:51;;;;;;;11.50;1.42;;;;;;;;;;5016380;28;20038;-78
2022/12/26 15:53:23;;;;;;;11.85;1.60;;;;;;;;;;5027914;28;20052;-77
2022/12/26 15:56:05;;;;;;;9.07;1.65;;;;;;;;;;5018041;28;20123;-77
2022/12/26 15:58:57;;;;;;;6.82;0.98;;;;;;;;;;5029248;28;20048;-78
2022/12/26 16:01:35;;;;;;;8.48;1.23;;;;;;;;;;5028078;28;20156;-78
2022/12/26 16:04:02;;;;;;;12.98;1.70;;;;;;;;;;5028357;28;20095;-78
2022/12/26 16:06:31;;;;;;;8.85;1.15;;;;;;;;;;5041543;28;20088;-78
2022/12/26 16:09:10;;;;;;;8.65;1.48;;;;;;;;;;5039271;28;20022;-78
2022/12/26 16:11:52;;;;;;;9.85;1.70;;;;;;;;;;5002849;28;20029;-78
2022/12/26 16:14:26;;;;;;;10.35;2.00;;;;;;;;;;5027120;28;20087;-78
2022/12/26 16:16:52;;;;;;;7.28;1.20;;;;;;;;;;5035294;28;20022;-78
2022/12/26 16:19:20;;;;;;;9.82;1.80;;;;;;;;;;5020741;28;20092;-78
2022/12/26 16:24:39;;;;;;;12.32;2.25;;;;;;;;;;5023521;28;20099;-78
2022/12/26 16:27:06;;;;;;;11.15;3.33;;;;;;;;;;5039348;28;20044;-78
2022/12/26 16:29:32;;;;;;;15.80;4.18;;;;;;;;;;5021442;28;20022;-79
2022/12/26 16:32:03;;;;;;;17.13;3.47;;;;;;;;;;5021730;28;20049;-80
2022/12/26 16:34:32;;;;;;;19.60;3.25;;;;;;;;;;5017230;28;20022;-79
2022/12/26 16:36:58;;;;;;;15.38;2.58;;;;;;;;;;5036479;28;20051;-80
2022/12/26 16:39:24;;;;;;;17.77;2.80;;;;;;;;;;5035540;28;20029;-80
2022/12/26 16:42:04;;;;;;;14.43;2.25;;;;;;;;;;5026588;28;20049;-80
2022/12/26 16:44:37;;;;;;;8.90;2.03;;;;;;;;;;5034411;28;20057;-80
2022/12/26 16:47:09;;;;;;;8.88;1.88;;;;;;;;;;5037231;28;20021;-80
2022/12/26 16:49:36;;;;;;;12.13;1.60;;;;;;;;;;5028556;28;20033;-80
2022/12/26 16:52:02;;;;;;;12.93;2.05;;;;;;;;;;5020582;28;20026;-80
2022/12/26 16:54:35;;;;;;;7.80;1.60;;;;;;;;;;5017838;28;20605;-79
2022/12/26 16:57:01;;;;;;;11.10;1.60;;;;;;;;;;5017610;28;20053;-79
2022/12/26 16:59:30;;;;;;;9.23;1.52;;;;;;;;;;5030795;28;20409;-79
2022/12/26 17:01:58;;;;;;;10.20;1.73;;;;;;;;;;5025333;28;20026;-79
2022/12/26 17:04:25;;;;;;;11.40;1.50;;;;;;;;;;5030393;28;20042;-79
2022/12/26 17:06:51;;;;;;;7.15;1.70;;;;;;;;;;5031218;28;20030;-79
2022/12/26 17:09:17;;;;;;;10.15;2.30;;;;;;;;;;5032375;28;20558;-79
2022/12/26 17:11:55;;;;;;;14.35;2.58;;;;;;;;;;5029278;28;20029;-79
2022/12/26 17:14:24;;;;;;;14.43;2.00;;;;;;;;;;5023290;28;20092;-79
2022/12/26 17:16:57;;;;;;;6.82;1.45;;;;;;;;;;5033140;28;20059;-78